Terminal Aerodrome Forecast
Issued by NWS Boise, ID

Home | Current Version | Previous Version | Text Only | Print | Product List | Glossary On
Versions: 1 2 3 4 5 6 7 8 9 10 11 12 13 14 15 16 17 18 19 20 21 22 23 24
000
FTUS45 KBOI 162330
TAFBOI
TAF
KBOI 162330Z 1700/1724 31011G17KT P6SM SCT100
     FM170300 15006KT P6SM SKC
     FM171500 31008KT P6SM SKC
      TEMPO 1721/1723 31011G17KT=

USA.gov is the U.S. government's official web portal to all federal, state and local government web resources and services.